createdAt,value
2022-09-01T00:00:11.336Z,98766.75
2022-09-01T00:03:14.479Z,98771.44
2022-09-01T00:06:22.534Z,98782.56
2022-09-01T00:09:25.518Z,98778.09
2022-09-01T00:12:29.603Z,98781.97
2022-09-01T00:15:33.821Z,98776.84
2022-09-01T00:18:37.397Z,98785.31
2022-09-01T00:21:42.667Z,98786.56
2022-09-01T00:24:45.374Z,98778.44
2022-09-01T00:27:48.357Z,98783.81
2022-09-01T00:30:53.480Z,98781.44
2022-09-01T00:33:57.926Z,98779.25
2022-09-01T00:37:01.613Z,98778.59
2022-09-01T00:40:05.993Z,98774.78
2022-09-01T00:43:15.931Z,98775.50
2022-09-01T00:46:22.014Z,98771.03
2022-09-01T00:49:31.673Z,98772.63
2022-09-01T00:52:41.542Z,98769.06
2022-09-01T00:55:44.277Z,98774.69
2022-09-01T00:58:47.025Z,98770.00
2022-09-01T01:01:52.212Z,98764.16
2022-09-01T01:04:56.110Z,98764.72
2022-09-01T01:07:59.675Z,98763.72
2022-09-01T01:11:03.290Z,98768.50
2022-09-01T01:14:12.505Z,98766.56
2022-09-01T01:17:17.438Z,98776.66
2022-09-01T01:20:39.001Z,98767.03
2022-09-01T01:23:47.018Z,98768.97
2022-09-01T01:26:51.531Z,98773.19
2022-09-01T01:29:55.278Z,98767.25
2022-09-01T01:32:57.932Z,98765.88
2022-09-01T01:36:01.437Z,98768.41
2022-09-01T01:39:05.602Z,98770.66
2022-09-01T01:42:09.754Z,98768.03
2022-09-01T01:48:43.849Z,98770.22
2022-09-01T01:51:47.304Z,98778.81
2022-09-01T01:54:49.670Z,98772.03
2022-09-01T01:57:54.412Z,98767.69
2022-09-01T02:00:58.903Z,98774.66
2022-09-01T02:04:04.243Z,98777.06
2022-09-01T02:07:11.999Z,98778.44
2022-09-01T02:10:14.998Z,98782.97
2022-09-01T02:13:26.678Z,98780.34
2022-09-01T02:16:32.829Z,98782.44
2022-09-01T02:19:40.574Z,98772.59
2022-09-01T02:22:44.696Z,98770.31
2022-09-01T02:26:14.164Z,98769.22
2022-09-01T02:29:18.141Z,98776.66
2022-09-01T02:32:22.073Z,98780.41
2022-09-01T02:35:34.547Z,98776.06
2022-09-01T02:38:38.857Z,98771.72
2022-09-01T02:41:41.940Z,98774.13
2022-09-01T02:44:45.902Z,98771.03
2022-09-01T02:47:48.684Z,98775.84
2022-09-01T02:50:51.786Z,98769.88
2022-09-01T02:53:55.079Z,98769.75
2022-09-01T02:56:58.024Z,98766.25
2022-09-01T03:00:03.476Z,98768.53
2022-09-01T03:03:07.540Z,98763.72
2022-09-01T03:06:10.342Z,98766.44
2022-09-01T03:09:15.655Z,98765.06
2022-09-01T03:12:19.260Z,98756.25
2022-09-01T03:15:23.716Z,98752.34
2022-09-01T03:18:26.357Z,98755.34
2022-09-01T03:21:29.557Z,98758.69
2022-09-01T03:24:32.179Z,98759.69
2022-09-01T03:27:34.744Z,98760.63
2022-09-01T03:30:40.313Z,98769.81
2022-09-01T03:33:43.674Z,98767.53
2022-09-01T03:36:50.455Z,98770.28
2022-09-01T03:39:53.295Z,98766.13
2022-09-01T03:42:59.228Z,98773.34
2022-09-01T03:46:03.268Z,98780.59
2022-09-01T03:49:08.043Z,98770.81
2022-09-01T03:52:12.128Z,98771.16
2022-09-01T03:55:18.382Z,98770.38
2022-09-01T03:58:21.301Z,98767.47
2022-09-01T04:01:25.971Z,98769.88
2022-09-01T04:04:31.464Z,98768.97
2022-09-01T04:07:34.093Z,98774.91
2022-09-01T04:10:38.323Z,98765.53
2022-09-01T04:13:42.759Z,98773.66
2022-09-01T04:17:04.361Z,98778.19
2022-09-01T04:20:11.055Z,98772.91
2022-09-01T04:23:13.752Z,98774.50
2022-09-01T04:26:20.561Z,98770.03
2022-09-01T04:29:27.528Z,98781.22
2022-09-01T04:32:32.511Z,98770.72
2022-09-01T04:35:39.013Z,98783.16
2022-09-01T04:38:41.685Z,98781.22
2022-09-01T04:41:46.881Z,98775.84
2022-09-01T04:44:49.620Z,98774.94
2022-09-01T04:47:53.730Z,98775.50
2022-09-01T04:50:58.539Z,98771.50
2022-09-01T04:54:03.759Z,98775.25
2022-09-01T04:57:07.453Z,98772.06
2022-09-01T05:00:22.445Z,98770.63
2022-09-01T05:03:26.856Z,98778.66
2022-09-01T05:06:34.589Z,98781.78
2022-09-01T05:09:38.196Z,98780.69
2022-09-01T05:12:41.469Z,98777.75
2022-09-01T05:15:47.386Z,98783.72
2022-09-01T05:18:51.557Z,98780.66
2022-09-01T05:21:58.236Z,98776.00
2022-09-01T05:25:11.781Z,98786.97
2022-09-01T05:28:14.500Z,98783.50
2022-09-01T05:31:19.661Z,98787.63
2022-09-01T05:34:27.561Z,98790.38
2022-09-01T05:37:30.294Z,98787.63
2022-09-01T05:40:34.341Z,98784.31
2022-09-01T05:43:37.462Z,98786.94
2022-09-01T05:46:40.805Z,98791.75
2022-09-01T05:49:44.717Z,98780.78
2022-09-01T05:52:48.191Z,98787.75
2022-09-01T05:55:52.705Z,98788.09
2022-09-01T06:02:18.345Z,98789.41
2022-09-01T06:05:22.323Z,98795.50
2022-09-01T06:08:29.009Z,98797.97
2022-09-01T06:11:33.262Z,98792.66
2022-09-01T06:14:35.862Z,98788.28
2022-09-01T06:17:39.100Z,98785.22
2022-09-01T06:20:43.915Z,98785.84
2022-09-01T06:23:46.962Z,98783.84
2022-09-01T06:26:49.537Z,98793.13
2022-09-01T06:29:53.651Z,98786.63
2022-09-01T06:32:57.091Z,98789.66
2022-09-01T06:36:02.180Z,98791.84
2022-09-01T06:39:05.919Z,98791.16
2022-09-01T06:42:09.548Z,98781.75
2022-09-01T06:45:13.021Z,98788.03
2022-09-01T06:48:16.049Z,98782.88
2022-09-01T06:51:22.178Z,98787.38
2022-09-01T06:54:25.634Z,98785.69
2022-09-01T07:00:53.116Z,98799.53
2022-09-01T07:03:56.410Z,98796.19
2022-09-01T07:07:54.205Z,98787.00
2022-09-01T07:10:28.162Z,98796.09
2022-09-01T07:13:30.780Z,98798.78
2022-09-01T07:16:52.536Z,98804.31
2022-09-01T07:19:56.315Z,98810.38
2022-09-01T07:23:04.509Z,98808.84
2022-09-01T07:26:08.708Z,98816.31
2022-09-01T07:29:11.440Z,98811.34
2022-09-01T07:35:39.384Z,98816.28
2022-09-01T07:45:59.749Z,98813.78
2022-09-01T07:52:27.037Z,98823.03
2022-09-01T07:55:31.921Z,98826.94
2022-09-01T07:58:34.557Z,98835.06
2022-09-01T08:01:37.247Z,98829.88
2022-09-01T08:04:40.050Z,98825.13
2022-09-01T08:07:57.904Z,98828.22
2022-09-01T08:11:05.405Z,98830.63
2022-09-01T08:14:08.303Z,98834.53
2022-09-01T08:20:37.736Z,98832.41
2022-09-01T08:23:40.807Z,98837.59
2022-09-01T08:26:44.813Z,98841.94
2022-09-01T08:29:48.823Z,98833.16
2022-09-01T08:32:51.431Z,98841.13
2022-09-01T08:35:55.274Z,98837.94
2022-09-01T08:38:57.957Z,98832.81
2022-09-01T08:42:07.165Z,98842.78
2022-09-01T08:45:17.010Z,98841.16
2022-09-01T08:49:09.869Z,98843.44
2022-09-01T08:51:50.011Z,98845.66
2022-09-01T08:54:55.891Z,98850.28
2022-09-01T08:58:01.628Z,98849.31
2022-09-01T09:01:11.983Z,98845.34
2022-09-01T09:04:26.276Z,98851.16
2022-09-01T09:07:40.306Z,98854.31
2022-09-01T09:10:47.959Z,98855.06
2022-09-01T09:13:59.807Z,98853.06
2022-09-01T09:17:04.260Z,98861.84
2022-09-01T09:20:09.175Z,98852.72
2022-09-01T09:23:27.087Z,98852.31
2022-09-01T09:26:42.134Z,98853.50
2022-09-01T09:29:47.060Z,98853.50
2022-09-01T09:33:24.859Z,98849.75
2022-09-01T09:36:22.085Z,98854.03
2022-09-01T09:39:29.499Z,98853.09
2022-09-01T09:42:36.432Z,98857.41
2022-09-01T09:45:42.553Z,98851.78
2022-09-01T09:48:45.215Z,98849.41
2022-09-01T09:51:50.087Z,98842.16
2022-09-01T09:55:01.643Z,98855.97
2022-09-01T09:58:12.830Z,98839.84
2022-09-01T10:01:30.254Z,98842.84
2022-09-01T10:04:35.769Z,98829.69
2022-09-01T10:07:39.028Z,98834.28
2022-09-01T10:10:44.196Z,98827.44
2022-09-01T10:13:46.864Z,98824.19
2022-09-01T10:16:56.069Z,98830.94
2022-09-01T10:20:04.572Z,98840.94
2022-09-01T10:23:15.099Z,98836.22
2022-09-01T10:26:21.061Z,98832.91
2022-09-01T10:29:27.046Z,98838.09
2022-09-01T10:32:42.151Z,98841.03
2022-09-01T10:35:51.625Z,98830.91
2022-09-01T10:38:58.923Z,98832.25
2022-09-01T10:42:19.556Z,98818.06
2022-09-01T10:45:32.835Z,98825.97
2022-09-01T10:48:55.318Z,98811.00
2022-09-01T10:52:05.783Z,98813.91
2022-09-01T10:55:16.332Z,98808.31
2022-09-01T11:02:35.996Z,98800.44
2022-09-01T11:06:12.098Z,98802.22
2022-09-01T11:09:22.849Z,98802.53
2022-09-01T11:12:42.914Z,98803.03
2022-09-01T11:15:46.451Z,98802.72
2022-09-01T11:18:51.199Z,98805.66
2022-09-01T11:22:09.498Z,98804.97
2022-09-01T11:25:39.931Z,98806.59
2022-09-01T11:28:44.073Z,98804.22
2022-09-01T11:31:46.924Z,98787.56
2022-09-01T11:34:49.701Z,98783.75
2022-09-01T11:37:58.358Z,98783.84
2022-09-01T11:41:00.925Z,98780.31
2022-09-01T11:44:10.308Z,98788.38
2022-09-01T11:47:17.652Z,98771.72
2022-09-01T11:50:22.806Z,98770.88
2022-09-01T11:53:27.264Z,98767.31
2022-09-01T11:56:30.298Z,98771.94
2022-09-01T11:59:34.894Z,98762.88
2022-09-01T12:02:45.152Z,98765.88
2022-09-01T12:05:49.405Z,98761.69
2022-09-01T12:08:56.454Z,98764.44
2022-09-01T12:11:59.259Z,98763.28
2022-09-01T12:15:06.075Z,98765.13
2022-09-01T12:18:19.089Z,98754.78
2022-09-01T12:21:23.982Z,98746.22
2022-09-01T12:24:28.345Z,98757.19
2022-09-01T12:27:31.412Z,98751.09
2022-09-01T12:30:35.487Z,98751.22
2022-09-01T12:33:38.546Z,98756.44
2022-09-01T12:36:41.566Z,98749.47
2022-09-01T12:39:45.962Z,98752.66
2022-09-01T12:42:51.967Z,98752.44
2022-09-01T12:45:54.680Z,98754.09
2022-09-01T12:48:57.498Z,98751.16
2022-09-01T12:52:14.710Z,98743.03
2022-09-01T12:58:48.292Z,98745.13
2022-09-01T13:01:54.411Z,98741.59
2022-09-01T13:05:29.972Z,98730.56
2022-09-01T13:08:36.079Z,98736.44
2022-09-01T13:15:05.268Z,98721.78
2022-09-01T13:18:08.037Z,98714.97
2022-09-01T13:21:11.122Z,98715.41
2022-09-01T13:24:14.165Z,98699.63
2022-09-01T13:27:22.235Z,98696.66
2022-09-01T13:30:28.432Z,98695.00
2022-09-01T13:34:08.793Z,98691.41
2022-09-01T13:36:53.976Z,98690.78
2022-09-01T13:39:56.546Z,98691.16
2022-09-01T13:43:00.948Z,98684.94
2022-09-01T13:46:03.719Z,98686.78
2022-09-01T13:49:42.166Z,98684.19
2022-09-01T13:52:29.865Z,98680.25
2022-09-01T13:55:34.240Z,98684.06
2022-09-01T13:58:38.094Z,98687.47
2022-09-01T14:01:41.098Z,98685.38
2022-09-01T14:04:43.772Z,98679.31
2022-09-01T14:07:46.500Z,98678.03
2022-09-01T14:10:51.867Z,98677.22
2022-09-01T14:13:55.822Z,98682.06
2022-09-01T14:16:58.414Z,98671.50
2022-09-01T14:20:01.163Z,98670.72
2022-09-01T14:23:04.523Z,98675.53
2022-09-01T14:26:10.275Z,98665.00
2022-09-01T14:29:14.426Z,98669.44
2022-09-01T14:32:18.888Z,98658.91
2022-09-01T14:35:24.820Z,98656.53
2022-09-01T14:38:27.432Z,98660.34
2022-09-01T14:41:32.956Z,98659.00
2022-09-01T14:44:38.664Z,98654.50
2022-09-01T14:47:41.275Z,98647.75
2022-09-01T14:50:45.991Z,98637.94
2022-09-01T14:53:48.679Z,98644.97
2022-09-01T15:00:17.066Z,98630.28
2022-09-01T15:03:22.808Z,98631.16
2022-09-01T15:06:25.848Z,98631.59
2022-09-01T15:09:28.637Z,98631.97
2022-09-01T15:12:31.607Z,98629.09
2022-09-01T15:15:35.931Z,98628.91
2022-09-01T15:18:38.989Z,98622.75
2022-09-01T15:21:43.162Z,98614.59
2022-09-01T15:24:45.774Z,98614.97
2022-09-01T15:27:48.425Z,98623.09
2022-09-01T15:30:54.290Z,98620.75
2022-09-01T15:33:58.112Z,98605.28
2022-09-01T15:37:00.837Z,98613.41
2022-09-01T15:40:04.382Z,98606.66
2022-09-01T15:43:07.325Z,98616.41
2022-09-01T15:46:12.101Z,98606.88
2022-09-01T15:49:14.987Z,98601.56
2022-09-01T15:52:17.756Z,98599.97
2022-09-01T15:55:22.768Z,98602.09
2022-09-01T15:58:30.416Z,98586.03
2022-09-01T16:01:44.755Z,98590.78
2022-09-01T16:04:47.647Z,98589.97
2022-09-01T16:07:51.468Z,98591.78
2022-09-01T16:10:54.503Z,98596.06
2022-09-01T16:13:58.102Z,98592.13
2022-09-01T16:17:05.086Z,98583.88
2022-09-01T16:20:11.208Z,98586.03
2022-09-01T16:23:17.480Z,98585.09
2022-09-01T16:26:23.159Z,98571.75
2022-09-01T16:29:35.058Z,98578.53
2022-09-01T16:32:40.796Z,98575.13
2022-09-01T16:35:46.367Z,98567.22
2022-09-01T16:38:51.548Z,98574.84
2022-09-01T16:42:01.197Z,98566.00
2022-09-01T16:45:08.562Z,98575.06
2022-09-01T16:48:18.405Z,98565.66
2022-09-01T16:51:26.990Z,98574.63
2022-09-01T16:54:38.948Z,98571.88
2022-09-01T16:57:47.962Z,98576.41
2022-09-01T17:00:57.852Z,98569.41
2022-09-01T17:04:19.412Z,98576.09
2022-09-01T17:07:29.656Z,98564.25
2022-09-01T17:10:34.767Z,98563.47
2022-09-01T17:13:40.126Z,98569.44
2022-09-01T17:16:44.432Z,98576.16
2022-09-01T17:19:52.654Z,98569.19
2022-09-01T17:23:00.556Z,98574.19
2022-09-01T17:26:05.979Z,98580.41
2022-09-01T17:29:13.619Z,98579.28
2022-09-01T17:32:30.905Z,98581.03
2022-09-01T17:35:39.679Z,98583.09
2022-09-01T17:38:48.065Z,98584.31
2022-09-01T17:41:55.877Z,98597.06
2022-09-01T17:45:10.151Z,98591.91
2022-09-01T17:48:18.058Z,98593.91
2022-09-01T17:51:26.823Z,98601.84
2022-09-01T17:54:37.200Z,98605.03
2022-09-01T17:57:43.106Z,98602.63
2022-09-01T18:00:49.865Z,98606.19
2022-09-01T18:04:12.108Z,98612.84
2022-09-01T18:07:28.096Z,98612.00
2022-09-01T18:10:34.350Z,98607.88
2022-09-01T18:13:57.029Z,98614.53
2022-09-01T18:17:04.450Z,98621.53
2022-09-01T18:20:10.365Z,98625.78
2022-09-01T18:23:16.778Z,98626.75
2022-09-01T18:26:27.133Z,98627.34
2022-09-01T18:29:31.643Z,98634.38
2022-09-01T18:32:42.756Z,98640.22
2022-09-01T18:35:48.063Z,98639.31
2022-09-01T18:38:54.771Z,98639.97
2022-09-01T18:42:06.612Z,98641.44
2022-09-01T18:45:15.163Z,98644.53
2022-09-01T18:48:27.068Z,98638.06
2022-09-01T18:51:41.768Z,98639.50
2022-09-01T18:54:51.725Z,98637.44
2022-09-01T18:57:57.570Z,98636.84
2022-09-01T19:01:05.823Z,98642.41
2022-09-01T19:04:13.831Z,98640.78
2022-09-01T19:07:24.195Z,98638.34
2022-09-01T19:10:31.434Z,98635.06
2022-09-01T19:13:47.449Z,98643.19
2022-09-01T19:17:02.606Z,98641.22
2022-09-01T19:20:08.815Z,98642.66
2022-09-01T19:23:14.145Z,98639.53
2022-09-01T19:26:21.596Z,98643.38
2022-09-01T19:29:26.992Z,98647.34
2022-09-01T19:32:31.167Z,98653.84
2022-09-01T19:35:35.190Z,98652.44
2022-09-01T19:38:39.445Z,98656.81
2022-09-01T19:41:47.135Z,98659.63
2022-09-01T19:44:55.279Z,98654.94
2022-09-01T19:48:00.755Z,98660.75
2022-09-01T19:51:05.738Z,98654.66
2022-09-01T19:54:12.307Z,98653.69
2022-09-01T19:57:24.107Z,98651.34
2022-09-01T20:00:32.956Z,98654.00
2022-09-01T20:03:37.407Z,98657.56
2022-09-01T20:06:43.549Z,98662.03
2022-09-01T20:09:50.949Z,98655.19
2022-09-01T20:13:06.753Z,98659.13
2022-09-01T20:16:15.172Z,98657.41
2022-09-01T20:19:25.114Z,98652.69
2022-09-01T20:22:31.662Z,98653.06
2022-09-01T20:25:42.418Z,98657.00
2022-09-01T20:28:50.055Z,98650.19
2022-09-01T20:31:56.779Z,98649.72
2022-09-01T20:35:02.696Z,98647.88
2022-09-01T20:38:33.205Z,98656.03
2022-09-01T20:41:39.619Z,98653.06
2022-09-01T20:44:46.049Z,98654.50
2022-09-01T20:47:52.840Z,98647.53
2022-09-01T20:51:00.594Z,98657.28
2022-09-01T20:54:10.166Z,98647.41
2022-09-01T20:57:21.780Z,98654.22
2022-09-01T21:00:27.671Z,98651.84
2022-09-01T21:03:37.445Z,98648.16
2022-09-01T21:06:54.542Z,98641.66
2022-09-01T21:10:02.409Z,98637.09
2022-09-01T21:13:14.857Z,98636.00
2022-09-01T21:16:25.734Z,98634.69
2022-09-01T21:19:36.463Z,98638.75
2022-09-01T21:22:39.162Z,98640.41
2022-09-01T21:25:44.165Z,98638.34
2022-09-01T21:28:48.262Z,98642.06
2022-09-01T21:31:52.391Z,98638.66
2022-09-01T21:34:55.696Z,98642.16
2022-09-01T21:37:58.245Z,98643.06
2022-09-01T21:41:01.692Z,98646.75
2022-09-01T21:44:05.166Z,98643.56
2022-09-01T21:47:09.222Z,98647.38
2022-09-01T21:50:13.609Z,98640.78
2022-09-01T21:53:16.582Z,98646.41
2022-09-01T21:56:19.302Z,98641.50
2022-09-01T21:59:28.700Z,98637.50
2022-09-01T22:02:33.610Z,98636.72
2022-09-01T22:05:37.877Z,98649.25
2022-09-01T22:08:40.801Z,98646.13
2022-09-01T22:11:44.713Z,98643.38
2022-09-01T22:14:47.475Z,98639.41
2022-09-01T22:17:52.127Z,98641.25
2022-09-01T22:21:02.592Z,98637.53
2022-09-01T22:24:06.162Z,98643.56
2022-09-01T22:27:09.129Z,98640.03
2022-09-01T22:30:13.033Z,98634.50
2022-09-01T22:33:18.313Z,98636.38
2022-09-01T22:36:23.789Z,98633.88
2022-09-01T22:39:26.774Z,98634.69
2022-09-01T22:42:29.390Z,98633.81
2022-09-01T22:45:32.323Z,98631.13
2022-09-01T22:48:36.621Z,98637.50
2022-09-01T22:51:40.493Z,98637.59
2022-09-01T22:54:43.384Z,98640.16
2022-09-01T22:57:46.052Z,98637.66
2022-09-01T23:00:51.202Z,98640.97
2022-09-01T23:03:59.433Z,98640.63
2022-09-01T23:07:02.117Z,98643.03
2022-09-01T23:10:06.522Z,98644.31
2022-09-01T23:13:09.394Z,98636.41
2022-09-01T23:16:13.569Z,98639.22
2022-09-01T23:19:17.560Z,98635.34
2022-09-01T23:22:20.327Z,98630.00
2022-09-01T23:25:24.270Z,98634.72
2022-09-01T23:28:26.987Z,98633.91
2022-09-01T23:31:31.946Z,98631.75
2022-09-01T23:34:35.950Z,98629.69
2022-09-01T23:37:38.685Z,98620.56
2022-09-01T23:40:43.065Z,98625.38
2022-09-01T23:43:45.803Z,98622.03
2022-09-01T23:46:48.506Z,98617.34
2022-09-01T23:49:52.710Z,98630.44
2022-09-01T23:52:55.496Z,98623.38
2022-09-01T23:56:02.101Z,98611.69
2022-09-01T23:59:04.992Z,98622.81
